AirNav   Air Wisconsin Up To $57,000 Bonus
 
 1535 users online  

4S4 Skyport Airport
Cornelius, Oregon, USA

GOING TO CORNELIUS?


FAA INFORMATION EFFECTIVE 26 JANUARY 2023

Location

FAA Identifier: 4S4
Lat/Long: 45-34-57.4120N 123-03-10.3860W
45-34.956867N 123-03.173100W
45.5826144,-123.0528850
(estimated)
Elevation: 174 ft. / 53 m (estimated)
Variation: 20E (1985)
From city: 3 miles N of CORNELIUS, OR
Time zone: UTC -8 (UTC -7 during Daylight Saving Time)
Zip code: 97113

Airport Operations

Airport use: Open to the public
Control tower: no
ARTCC: SEATTLE CENTER
FSS: MC MINNVILLE FLIGHT SERVICE STATION
NOTAMs facility: MMV (NOTAM-D service available)
Attendance: 0600-2000
Wind indicator: yes
Segmented circle: yes
MARKED BY WHITE BARRELS

Airport Communications

CTAF: 122.9
WX ASOS at HIO (5 nm SE): PHONE 503-615-4314
WX ASOS at SPB (14 nm NE): 135.875 (503-543-6401)
WX ASOS at VUO (17 nm E): 135.125 (360-696-1280)
WX ASOS at PDX (19 nm E): PHONE (503) 493-7687

Nearby radio navigation aids

VOR radial/distance  VOR name  Freq  Var
UBGr326/14.1NEWBERG VOR/DME117.4021E
BTGr222/21.7BATTLE GROUND VORTAC116.6021E

 
NDB name  Hdg/Dist  Freq  Var  ID
BANKS170/2.935616EPND .--. -. -..

Airport Services

Parking: tiedowns
Bottled oxygen: NONE
Bulk oxygen: NONE

Runway Information

Runway 16/34

Dimensions: 2000 x 45 ft. / 610 x 14 m
Surface: turf, in good condition
Runway edge markings: 16/34 RY ENDS MARKED WITH HALF BARRELS. RY 34 DSPLCD THR MARKED WITH 'L' SHAPED BOARDS.
RUNWAY 16  RUNWAY 34
Traffic pattern: rightleft
Displaced threshold: no200 ft.
Obstructions: 112 ft. trees, 2022 ft. from runway, 18:1 slope to clear15 ft. road, 45 ft. from runway, 3:1 slope to clear
APCH RATIO 16:1 TO DSPLCD THLD.

Airport Ownership and Management from official FAA records

Ownership: Privately-owned
Owner: V D PUTMAN
36525 SALZWEDEL RD
CORNELIUS, OR 97113
Phone 503-648-9311
Manager: GUY PUTMAN
36525 SALZWEDEL RD
CORNELIUS, OR 97113
Phone 503-648-9311

Airport Operational Statistics

Aircraft based on the field: 3
Single engine airplanes: 3
    
Aircraft operations: avg 38/week *
62% transient general aviation
38% local general aviation
* for 12-month period ending 08 January 2019

Additional Remarks

HELICOPTER & ULTRALIGHT OPNS PROHIBITED.
FOR CD CTC PORTLAND APCH AT 503-493-7545.

Instrument Procedures

There are no published instrument procedures at 4S4.

Some nearby airports with instrument procedures:

KHIO - Portland-Hillsboro Airport (5 nm SE)
KSPB - Scappoose Airport (14 nm NE)
KVUO - Pearson Field Airport (17 nm E)
KPDX - Portland International Airport (19 nm E)
KUAO - Aurora State Airport (23 nm SE)
 
Loc | Ops | Rwys | IFR | FBO | Links
Com | Nav | Svcs | Stats | Notes
Area around 4S4 (Skyport Airport)
 
Road maps at: MapQuest Bing Google
 
Aerial photo
WARNING: Photo may not be current or correct
Aerial photo of 4S4 (Skyport Airport)
Do you have a better or more recent aerial photo of Skyport Airport that you would like to share? If so, please send us your photo.

 
Sectional chart

 
Airport distance calculator
Flying to Skyport Airport? Find the distance to fly.

From to 4S4

Sunrise and sunset
Times for 03-Feb-2023
 Local
(UTC-8)
 Zulu
(UTC)
Morning civil twilight07:0115:01
Sunrise07:3215:32
Sunset17:2001:20
Evening civil twilight17:5201:52

Current date and time
Zulu (UTC)  03-Feb-2023 17:33:51
Local (UTC-8)  03-Feb-2023 09:33:51
 
METAR
KHIO 
5nm SE 
031653Z 00000KT 8SM -RA SCT055 BKN080 OVC090 03/00 A2993 RMK AO2 RAB51 SLP139 P0000 T00330000
KSPB 
14nm NE 
031653Z AUTO 00000KT 10SM FEW060 OVC085 03/00 A2992 RMK AO2 SLP133 T00330000
KVUO 
17nm E 
031653Z AUTO 12006KT 10SM FEW070 BKN090 OVC110 06/M02 A2995 RMK AO2 SLP143 T00611017
KPDX 
19nm E 
031653Z 13010KT 10SM SCT080 BKN095 OVC120 06/M02 A2993 RMK AO2 SLP135 T00611022
TAF
KHIO 
5nm SE 
031145Z 0312/0412 00000KT P6SM BKN100 WS020/18030KT FM031700 10006KT 6SM -RA OVC045 WS020/19040KT FM032100 19018G28KT 5SM -RA BR BKN025 OVC040 FM040000 19016G24KT P6SM -RA BKN025 OVC045 FM040600 15009KT P6SM -RA BKN050
KPDX 
19nm E 
031145Z 0312/0412 00000KT P6SM BKN100 WS020/18035KT FM031800 12013KT P6SM -RA OVC045 WS020/19040KT FM032100 18020G30KT P6SM -RA BKN030 OVC045 FM040000 19014KT P6SM -RA BKN035 OVC050 FM040600 15009KT P6SM -RA BKN050
NOTAMs
Click for the latest NOTAMs
NOTAMs are issued by the DoD/FAA and will open in a separate window not controlled by AirNav.

 

 
 

Would you like to see your business listed on this page?

 If your business provides an interesting product or service to pilots, flight crews, aircraft, or users of the Skyport Airport, you should consider listing it here.  To start the listing process, click on the button below
 
Add a business
 

Other Pages about Skyport Airport

Update a link
 
Copyright © AirNav, LLC. All rights reserved. Privacy Policy  Contact